createdAt,value
2022-07-28T00:00:08.390Z,213.07
2022-07-28T00:02:35.418Z,223.55
2022-07-28T00:05:02.268Z,216.20
2022-07-28T00:07:28.966Z,213.93
2022-07-28T00:10:00.116Z,213.35
2022-07-28T00:12:27.274Z,213.27
2022-07-28T00:14:53.922Z,211.50
2022-07-28T00:17:20.583Z,218.75
2022-07-28T00:19:47.208Z,216.95
2022-07-28T00:22:13.799Z,238.52
2022-07-28T00:24:41.321Z,241.80
2022-07-28T00:27:08.290Z,245.13
2022-07-28T00:29:50.031Z,229.25
2022-07-28T00:32:18.570Z,231.33
2022-07-28T00:34:45.335Z,234.25
2022-07-28T00:37:14.695Z,247.35
2022-07-28T00:39:42.390Z,250.65
2022-07-28T00:42:09.245Z,255.57
2022-07-28T00:44:36.564Z,266.30
2022-07-28T00:47:03.285Z,239.88
2022-07-28T00:49:30.023Z,251.05
2022-07-28T00:51:57.254Z,241.95
2022-07-28T00:54:23.926Z,229.55
2022-07-28T00:56:51.008Z,238.43
2022-07-28T00:59:17.647Z,226.53
2022-07-28T01:01:44.565Z,228.02
2022-07-28T01:04:11.732Z,231.90
2022-07-28T01:07:16.951Z,238.48
2022-07-28T01:09:52.876Z,239.32
2022-07-28T01:12:30.138Z,229.40
2022-07-28T01:15:14.977Z,232.37
2022-07-28T01:18:04.997Z,228.75
2022-07-28T01:20:34.631Z,225.50
2022-07-28T01:23:32.003Z,236.37
2022-07-28T01:26:23.271Z,221.98
2022-07-28T01:29:20.157Z,223.43
2022-07-28T01:31:58.164Z,216.25
2022-07-28T01:34:32.007Z,219.38
2022-07-28T01:37:06.278Z,232.77
2022-07-28T01:39:36.061Z,225.25
2022-07-28T01:42:05.014Z,229.02
2022-07-28T01:44:34.416Z,227.18
2022-07-28T01:47:05.109Z,234.30
2022-07-28T01:49:32.393Z,240.75
2022-07-28T01:52:02.141Z,251.27
2022-07-28T01:54:30.384Z,230.93
2022-07-28T01:56:59.219Z,235.48
2022-07-28T01:59:30.221Z,235.32
2022-07-28T02:02:00.418Z,228.85
2022-07-28T02:04:31.118Z,239.27
2022-07-28T02:06:59.545Z,221.23
2022-07-28T02:09:27.330Z,224.10
2022-07-28T02:11:55.965Z,234.65
2022-07-28T02:14:25.692Z,238.93
2022-07-28T02:16:57.845Z,221.45
2022-07-28T02:19:26.045Z,235.80
2022-07-28T02:21:54.429Z,229.48
2022-07-28T02:24:26.286Z,233.75
2022-07-28T02:27:00.876Z,247.77
2022-07-28T02:29:50.347Z,236.30
2022-07-28T02:32:33.802Z,227.30
2022-07-28T02:35:09.676Z,243.00
2022-07-28T02:37:39.856Z,248.18
2022-07-28T02:40:12.189Z,221.70
2022-07-28T02:42:40.313Z,222.75
2022-07-28T02:45:11.737Z,251.63
2022-07-28T02:47:44.131Z,248.35
2022-07-28T02:50:14.308Z,242.43
2022-07-28T02:52:42.622Z,217.90
2022-07-28T02:55:12.169Z,217.55
2022-07-28T02:57:41.499Z,205.10
2022-07-28T03:00:08.775Z,222.07
2022-07-28T03:02:36.737Z,219.02
2022-07-28T03:05:07.715Z,227.93
2022-07-28T03:07:50.828Z,221.18
2022-07-28T03:10:33.695Z,227.93
2022-07-28T03:13:05.308Z,234.30
2022-07-28T03:15:32.223Z,233.50
2022-07-28T03:18:00.819Z,215.35
2022-07-28T03:20:28.011Z,219.75
2022-07-28T03:22:55.395Z,209.70
2022-07-28T03:25:40.486Z,223.70
2022-07-28T03:28:09.279Z,224.85
2022-07-28T03:30:41.862Z,224.05
2022-07-28T03:33:09.438Z,231.48
2022-07-28T03:35:44.936Z,224.45
2022-07-28T03:38:14.745Z,203.27
2022-07-28T03:40:46.976Z,212.50
2022-07-28T03:43:16.650Z,211.77
2022-07-28T03:45:46.718Z,204.40
2022-07-28T03:48:16.535Z,222.07
2022-07-28T03:50:43.315Z,208.63
2022-07-28T03:53:19.130Z,200.70
2022-07-28T03:55:50.583Z,205.82
2022-07-28T03:58:26.232Z,201.40
2022-07-28T04:00:55.963Z,215.15
2022-07-28T04:03:43.145Z,200.40
2022-07-28T04:06:09.637Z,192.35
2022-07-28T04:08:36.321Z,200.57
2022-07-28T04:11:03.197Z,196.93
2022-07-28T04:13:31.995Z,198.02
2022-07-28T04:15:59.988Z,196.35
2022-07-28T04:18:26.639Z,187.68
2022-07-28T04:20:53.265Z,189.57
2022-07-28T04:23:20.940Z,192.57
2022-07-28T04:25:47.961Z,184.13
2022-07-28T04:28:15.648Z,182.18
2022-07-28T04:30:44.126Z,176.05
2022-07-28T04:33:11.203Z,182.95
2022-07-28T04:35:37.913Z,180.13
2022-07-28T04:38:04.738Z,175.85
2022-07-28T04:40:33.927Z,171.20
2022-07-28T04:43:00.634Z,177.02
2022-07-28T04:45:27.341Z,173.88
2022-07-28T04:47:54.016Z,173.10
2022-07-28T04:50:21.551Z,180.77
2022-07-28T04:52:57.370Z,171.90
2022-07-28T04:55:24.475Z,178.35
2022-07-28T04:57:51.412Z,167.90
2022-07-28T05:00:18.674Z,177.77
2022-07-28T05:02:45.857Z,188.23
2022-07-28T05:05:13.530Z,189.32
2022-07-28T05:07:41.327Z,187.43
2022-07-28T05:10:10.315Z,169.32
2022-07-28T05:12:37.026Z,180.15
2022-07-28T05:15:04.994Z,173.27
2022-07-28T05:17:31.592Z,176.70
2022-07-28T05:19:58.377Z,177.00
2022-07-28T05:22:24.975Z,159.70
2022-07-28T05:24:51.639Z,164.80
2022-07-28T05:27:18.267Z,158.20
2022-07-28T05:29:47.719Z,141.65
2022-07-28T05:32:16.346Z,131.45
2022-07-28T05:34:43.752Z,131.70
2022-07-28T05:37:10.372Z,136.32
2022-07-28T05:39:37.581Z,118.37
2022-07-28T05:42:04.556Z,108.70
2022-07-28T05:44:37.217Z,112.45
2022-07-28T05:47:05.004Z,110.10
2022-07-28T05:49:31.715Z,84.45
2022-07-28T05:52:00.092Z,91.23
2022-07-28T05:54:26.780Z,71.85
2022-07-28T05:56:53.690Z,77.15
2022-07-28T05:59:20.334Z,68.53
2022-07-28T06:01:47.210Z,61.53
2022-07-28T06:04:26.597Z,59.63
2022-07-28T06:06:54.536Z,60.90
2022-07-28T06:09:21.149Z,61.65
2022-07-28T06:11:49.826Z,52.67
2022-07-28T06:14:16.776Z,66.50
2022-07-28T06:16:44.811Z,60.65
2022-07-28T06:19:11.564Z,51.58
2022-07-28T06:21:38.235Z,48.33
2022-07-28T06:24:05.393Z,56.30
2022-07-28T06:26:32.060Z,45.78
2022-07-28T06:28:58.734Z,44.28
2022-07-28T06:31:25.554Z,44.80
2022-07-28T06:33:52.183Z,35.43
2022-07-28T06:36:18.813Z,39.17
2022-07-28T06:38:45.601Z,32.22
2022-07-28T06:41:12.289Z,33.10
2022-07-28T06:43:39.447Z,28.77
2022-07-28T06:46:06.936Z,21.88
2022-07-28T06:48:34.234Z,26.70
2022-07-28T06:51:01.162Z,25.23
2022-07-28T06:53:32.390Z,17.58
2022-07-28T06:56:00.860Z,23.42
2022-07-28T06:58:27.504Z,24.02
2022-07-28T07:00:54.977Z,20.40
2022-07-28T07:03:21.721Z,19.95
2022-07-28T07:05:51.618Z,14.60
2022-07-28T07:08:20.833Z,17.80
2022-07-28T07:10:47.641Z,12.53
2022-07-28T07:13:14.296Z,22.20
2022-07-28T07:15:41.240Z,21.60
2022-07-28T07:18:08.207Z,14.80
2022-07-28T07:20:34.828Z,13.93
2022-07-28T07:23:01.680Z,11.88
2022-07-28T07:25:28.351Z,12.70
2022-07-28T07:27:55.027Z,13.50
2022-07-28T07:30:21.693Z,13.88
2022-07-28T07:32:48.422Z,12.20
2022-07-28T07:35:15.160Z,14.32
2022-07-28T07:37:41.826Z,11.20
2022-07-28T07:40:09.739Z,13.93
2022-07-28T07:42:36.615Z,14.77
2022-07-28T07:45:03.944Z,13.68
2022-07-28T07:47:31.108Z,13.40
2022-07-28T07:49:58.045Z,10.98
2022-07-28T07:52:27.100Z,12.57
2022-07-28T07:54:54.085Z,11.82
2022-07-28T07:57:23.402Z,14.10
2022-07-28T07:59:50.046Z,11.70
2022-07-28T08:02:16.699Z,11.98
2022-07-28T08:04:43.441Z,13.63
2022-07-28T08:07:10.287Z,9.77
2022-07-28T08:09:37.134Z,11.07
2022-07-28T08:12:04.106Z,12.05
2022-07-28T08:14:30.737Z,13.35
2022-07-28T08:17:07.879Z,9.10
2022-07-28T08:19:34.669Z,12.35
2022-07-28T08:22:02.476Z,10.43
2022-07-28T08:24:34.095Z,10.32
2022-07-28T08:27:02.326Z,8.85
2022-07-28T08:29:29.553Z,6.72
2022-07-28T08:31:56.545Z,8.30
2022-07-28T08:34:31.061Z,8.45
2022-07-28T08:37:00.715Z,10.90
2022-07-28T08:39:27.405Z,8.82
2022-07-28T08:42:18.042Z,10.05
2022-07-28T08:44:58.360Z,9.25
2022-07-28T08:47:40.615Z,9.40
2022-07-28T08:50:16.201Z,10.57
2022-07-28T08:52:45.537Z,9.25
2022-07-28T08:55:19.183Z,8.20
2022-07-28T08:57:46.723Z,9.20
2022-07-28T09:00:13.797Z,9.27
2022-07-28T09:02:47.038Z,8.23
2022-07-28T09:05:22.919Z,7.05
2022-07-28T09:07:54.615Z,6.90
2022-07-28T09:10:22.313Z,9.15
2022-07-28T09:12:49.056Z,8.07
2022-07-28T09:15:15.834Z,8.23
2022-07-28T09:17:43.140Z,6.00
2022-07-28T09:20:11.549Z,9.30
2022-07-28T09:22:56.514Z,9.93
2022-07-28T09:25:23.846Z,7.00
2022-07-28T09:27:51.849Z,6.75
2022-07-28T09:30:33.152Z,10.02
2022-07-28T09:33:41.902Z,8.82
2022-07-28T09:36:04.593Z,9.13
2022-07-28T09:38:43.211Z,8.65
2022-07-28T09:41:10.073Z,8.02
2022-07-28T09:43:37.927Z,8.45
2022-07-28T09:46:16.168Z,8.07
2022-07-28T09:48:51.775Z,7.00
2022-07-28T09:51:24.798Z,6.63
2022-07-28T09:53:52.459Z,8.55
2022-07-28T09:56:19.546Z,6.85
2022-07-28T09:59:00.540Z,7.90
2022-07-28T10:01:31.173Z,9.70
2022-07-28T10:04:04.295Z,5.53
2022-07-28T10:06:34.567Z,4.90
2022-07-28T10:09:05.457Z,7.78
2022-07-28T10:11:32.153Z,5.10
2022-07-28T10:14:00.306Z,6.22
2022-07-28T10:16:32.314Z,6.43
2022-07-28T10:19:01.649Z,7.75
2022-07-28T10:21:31.006Z,7.40
2022-07-28T10:24:04.625Z,8.05
2022-07-28T10:26:33.410Z,6.30
2022-07-28T10:29:05.786Z,5.95
2022-07-28T10:31:48.587Z,6.55
2022-07-28T10:34:24.641Z,10.27
2022-07-28T10:36:54.383Z,6.25
2022-07-28T10:39:23.931Z,6.28
2022-07-28T10:41:51.491Z,5.78
2022-07-28T10:44:19.839Z,8.73
2022-07-28T10:46:46.973Z,5.80
2022-07-28T10:49:14.861Z,7.13
2022-07-28T10:52:02.161Z,7.38
2022-07-28T10:54:33.355Z,7.20
2022-07-28T10:57:04.742Z,5.55
2022-07-28T10:59:58.632Z,9.15
2022-07-28T11:02:52.378Z,9.60
2022-07-28T11:05:39.643Z,6.38
2022-07-28T11:08:15.263Z,7.72
2022-07-28T11:10:50.091Z,5.72
2022-07-28T11:13:23.912Z,9.95
2022-07-28T11:15:57.641Z,8.43
2022-07-28T11:18:24.969Z,8.27
2022-07-28T11:20:58.703Z,6.90
2022-07-28T11:23:47.906Z,10.50
2022-07-28T11:26:20.897Z,6.63
2022-07-28T11:29:00.145Z,8.40
2022-07-28T11:31:47.774Z,7.43
2022-07-28T11:34:19.336Z,7.55
2022-07-28T11:36:58.937Z,8.68
2022-07-28T11:39:30.764Z,9.13
2022-07-28T11:42:28.254Z,6.93
2022-07-28T11:44:57.040Z,6.47
2022-07-28T11:47:25.731Z,5.88
2022-07-28T11:50:12.498Z,7.70
2022-07-28T11:52:40.188Z,7.40
2022-07-28T11:55:06.908Z,7.13
2022-07-28T11:57:41.601Z,6.57
2022-07-28T12:00:08.859Z,5.63
2022-07-28T12:02:35.750Z,4.95
2022-07-28T12:05:06.455Z,5.38
2022-07-28T12:07:35.758Z,8.57
2022-07-28T12:10:43.992Z,6.03
2022-07-28T12:13:09.332Z,5.47
2022-07-28T12:15:36.322Z,7.43
2022-07-28T12:18:03.148Z,6.87
2022-07-28T12:20:32.016Z,7.28
2022-07-28T12:23:02.648Z,7.50
2022-07-28T12:25:30.961Z,6.75
2022-07-28T12:28:02.032Z,4.88
2022-07-28T12:30:29.219Z,5.22
2022-07-28T12:32:56.001Z,5.50
2022-07-28T12:35:25.056Z,5.82
2022-07-28T12:37:52.090Z,5.80
2022-07-28T12:40:27.536Z,7.82
2022-07-28T12:42:54.355Z,4.90
2022-07-28T12:45:21.289Z,5.27
2022-07-28T12:47:48.282Z,4.70
2022-07-28T12:50:19.960Z,7.45
2022-07-28T12:53:08.322Z,6.07
2022-07-28T12:55:35.888Z,8.30
2022-07-28T12:58:03.247Z,6.17
2022-07-28T13:00:36.204Z,5.93
2022-07-28T13:03:26.313Z,6.83
2022-07-28T13:06:04.433Z,6.35
2022-07-28T13:08:47.772Z,7.27
2022-07-28T13:11:42.692Z,5.15
2022-07-28T13:14:03.338Z,6.22
2022-07-28T13:16:30.260Z,6.03
2022-07-28T13:19:05.805Z,8.63
2022-07-28T13:21:56.145Z,6.22
2022-07-28T13:24:26.761Z,7.40
2022-07-28T13:26:53.715Z,6.53
2022-07-28T13:29:20.467Z,5.28
2022-07-28T13:31:47.273Z,6.22
2022-07-28T13:34:14.914Z,6.07
2022-07-28T13:36:42.077Z,5.75
2022-07-28T13:39:10.776Z,5.88
2022-07-28T13:41:57.659Z,7.13
2022-07-28T13:44:24.309Z,5.80
2022-07-28T13:46:51.664Z,6.80
2022-07-28T13:49:21.312Z,7.33
2022-07-28T13:51:49.025Z,4.95
2022-07-28T13:54:19.030Z,6.55
2022-07-28T13:56:46.634Z,7.57
2022-07-28T13:59:13.753Z,7.07
2022-07-28T14:01:42.325Z,5.82
2022-07-28T14:04:14.624Z,7.80
2022-07-28T14:06:44.964Z,6.35
2022-07-28T14:09:12.974Z,5.77
2022-07-28T14:11:49.699Z,5.70
2022-07-28T14:14:25.235Z,5.05
2022-07-28T14:16:54.631Z,5.72
2022-07-28T14:19:23.605Z,6.55
2022-07-28T14:22:12.856Z,6.47
2022-07-28T14:24:44.294Z,6.55
2022-07-28T14:27:11.403Z,5.43
2022-07-28T14:29:40.337Z,8.73
2022-07-28T14:32:07.270Z,4.93
2022-07-28T14:34:34.622Z,8.05
2022-07-28T14:37:03.520Z,7.40
2022-07-28T14:39:35.213Z,5.07
2022-07-28T14:42:01.911Z,5.43
2022-07-28T14:44:28.588Z,5.03
2022-07-28T14:46:55.310Z,8.75
2022-07-28T14:49:22.019Z,4.93
2022-07-28T14:51:48.810Z,5.22
2022-07-28T14:54:16.008Z,4.47
2022-07-28T14:56:43.028Z,7.03
2022-07-28T14:59:09.703Z,7.55
2022-07-28T15:01:36.624Z,6.72
2022-07-28T15:04:04.154Z,5.97
2022-07-28T15:06:31.050Z,8.00
2022-07-28T15:08:58.550Z,6.57
2022-07-28T15:11:25.804Z,6.72
2022-07-28T15:13:52.591Z,8.20
2022-07-28T15:16:19.416Z,7.32
2022-07-28T15:18:46.069Z,5.75
2022-07-28T15:21:16.660Z,6.25
2022-07-28T15:23:44.154Z,5.33
2022-07-28T15:26:10.992Z,5.32
2022-07-28T15:28:37.838Z,4.75
2022-07-28T15:31:06.690Z,6.78
2022-07-28T15:33:43.849Z,4.95
2022-07-28T15:36:14.735Z,4.78
2022-07-28T15:38:41.541Z,5.72
2022-07-28T15:41:13.002Z,4.68
2022-07-28T15:43:39.825Z,5.25
2022-07-28T15:46:10.962Z,5.70
2022-07-28T15:48:39.659Z,3.47
2022-07-28T15:51:06.337Z,4.57
2022-07-28T15:53:34.453Z,6.10
2022-07-28T15:56:01.360Z,5.85
2022-07-28T15:58:27.956Z,5.70
2022-07-28T16:00:54.839Z,5.28
2022-07-28T16:03:24.768Z,4.85
2022-07-28T16:05:52.944Z,3.58
2022-07-28T16:08:22.969Z,4.28
2022-07-28T16:10:51.266Z,6.95
2022-07-28T16:13:22.760Z,6.85
2022-07-28T16:16:14.036Z,6.45
2022-07-28T16:18:42.816Z,7.00
2022-07-28T16:21:10.963Z,6.20
2022-07-28T16:23:38.081Z,5.38
2022-07-28T16:26:07.774Z,6.82
2022-07-28T16:28:35.024Z,4.88
2022-07-28T16:31:01.722Z,5.75
2022-07-28T16:33:33.129Z,8.02
2022-07-28T16:36:03.914Z,5.20
2022-07-28T16:38:30.783Z,3.75
2022-07-28T16:40:57.606Z,5.47
2022-07-28T16:43:24.862Z,5.60
2022-07-28T16:45:54.457Z,5.78
2022-07-28T16:48:21.284Z,6.43
2022-07-28T16:50:48.300Z,4.05
2022-07-28T16:53:16.420Z,3.75
2022-07-28T16:55:43.297Z,5.30
2022-07-28T16:58:09.956Z,5.25
2022-07-28T17:00:36.670Z,5.40
2022-07-28T17:03:03.369Z,7.82
2022-07-28T17:05:30.070Z,4.57
2022-07-28T17:07:56.809Z,5.15
2022-07-28T17:10:27.292Z,4.53
2022-07-28T17:12:54.677Z,6.20
2022-07-28T17:15:22.606Z,4.93
2022-07-28T17:17:53.142Z,4.45
2022-07-28T17:20:20.871Z,7.07
2022-07-28T17:22:50.532Z,7.18
2022-07-28T17:28:05.504Z,5.67
2022-07-28T17:30:33.153Z,6.65
2022-07-28T17:33:04.813Z,5.07
2022-07-28T17:35:35.135Z,5.32
2022-07-28T17:38:04.011Z,7.18
2022-07-28T17:40:30.891Z,7.03
2022-07-28T17:42:57.718Z,7.10
2022-07-28T17:45:24.853Z,5.68
2022-07-28T17:47:51.817Z,5.22
2022-07-28T17:50:19.019Z,7.95
2022-07-28T17:52:48.798Z,5.78
2022-07-28T17:55:57.515Z,5.55
2022-07-28T17:58:28.705Z,6.43
2022-07-28T18:01:10.417Z,5.47
2022-07-28T18:03:57.935Z,5.23
2022-07-28T18:06:34.486Z,6.07
2022-07-28T18:09:06.957Z,6.85
2022-07-28T18:11:57.164Z,5.70
2022-07-28T18:14:29.162Z,5.53
2022-07-28T18:16:56.604Z,5.47
2022-07-28T18:19:23.344Z,6.88
2022-07-28T18:21:50.237Z,5.60
2022-07-28T18:24:18.472Z,7.30
2022-07-28T18:26:45.559Z,5.88
2022-07-28T18:29:12.244Z,4.53
2022-07-28T18:31:45.508Z,5.78
2022-07-28T18:34:13.658Z,5.50
2022-07-28T18:36:40.679Z,4.95
2022-07-28T18:39:07.483Z,4.50
2022-07-28T18:41:45.968Z,8.07
2022-07-28T18:44:15.503Z,6.43
2022-07-28T18:46:42.555Z,5.47
2022-07-28T18:49:09.311Z,7.80
2022-07-28T18:51:36.129Z,6.30
2022-07-28T18:54:02.765Z,6.23
2022-07-28T18:56:29.344Z,6.35
2022-07-28T18:58:57.152Z,5.95
2022-07-28T19:01:23.925Z,8.00
2022-07-28T19:03:50.759Z,5.05
2022-07-28T19:06:17.357Z,5.30
2022-07-28T19:08:44.087Z,4.63
2022-07-28T19:11:10.666Z,6.80
2022-07-28T19:13:37.446Z,7.25
2022-07-28T19:16:04.559Z,6.05
2022-07-28T19:18:31.225Z,7.35
2022-07-28T19:20:57.911Z,8.52
2022-07-28T19:23:24.612Z,7.07
2022-07-28T19:25:51.715Z,4.95
2022-07-28T19:28:18.519Z,6.63
2022-07-28T19:30:45.231Z,6.05
2022-07-28T19:33:14.677Z,7.75
2022-07-28T19:35:45.497Z,7.50
2022-07-28T19:38:12.554Z,6.85
2022-07-28T19:40:41.412Z,6.03
2022-07-28T19:43:08.103Z,6.00
2022-07-28T19:45:37.229Z,7.53
2022-07-28T19:48:04.185Z,5.22
2022-07-28T19:50:31.075Z,6.73
2022-07-28T19:52:58.076Z,6.87
2022-07-28T19:55:26.972Z,6.82
2022-07-28T19:57:56.130Z,8.18
2022-07-28T20:00:22.871Z,6.88
2022-07-28T20:02:49.697Z,5.32
2022-07-28T20:05:16.887Z,7.30
2022-07-28T20:07:43.557Z,6.20
2022-07-28T20:10:10.306Z,5.38
2022-07-28T20:12:37.316Z,6.13
2022-07-28T20:15:05.718Z,5.90
2022-07-28T20:17:40.114Z,8.52
2022-07-28T20:20:12.086Z,5.70
2022-07-28T20:22:41.043Z,11.27
2022-07-28T20:25:09.441Z,5.40
2022-07-28T20:27:40.966Z,6.32
2022-07-28T20:30:10.304Z,9.52
2022-07-28T20:32:37.932Z,7.72
2022-07-28T20:35:05.912Z,6.53
2022-07-28T20:37:36.720Z,10.65
2022-07-28T20:40:08.073Z,10.13
2022-07-28T20:42:37.660Z,7.27
2022-07-28T20:45:05.156Z,8.50
2022-07-28T20:47:37.674Z,6.97
2022-07-28T20:50:05.257Z,8.25
2022-07-28T20:52:33.724Z,7.90
2022-07-28T20:55:04.466Z,7.33
2022-07-28T20:57:31.367Z,6.63
2022-07-28T20:59:58.046Z,9.50
2022-07-28T21:02:24.734Z,5.30
2022-07-28T21:04:52.006Z,7.35
2022-07-28T21:07:59.568Z,10.43
2022-07-28T21:10:06.941Z,8.75
2022-07-28T21:12:36.750Z,6.53
2022-07-28T21:15:10.600Z,8.83
2022-07-28T21:17:37.497Z,7.27
2022-07-28T21:20:06.113Z,6.10
2022-07-28T21:22:32.891Z,8.05
2022-07-28T21:24:59.512Z,7.55
2022-07-28T21:27:26.217Z,6.78
2022-07-28T21:32:18.751Z,10.67
2022-07-28T21:34:45.456Z,9.77
2022-07-28T21:37:13.001Z,7.60
2022-07-28T21:39:39.945Z,7.78
2022-07-28T21:42:08.464Z,11.63
2022-07-28T21:44:36.538Z,8.25
2022-07-28T21:47:03.723Z,8.80
2022-07-28T21:49:31.347Z,9.50
2022-07-28T21:51:58.346Z,7.85
2022-07-28T21:54:25.037Z,6.38
2022-07-28T21:56:51.884Z,7.07
2022-07-28T21:59:18.500Z,8.05
2022-07-28T22:01:45.161Z,8.40
2022-07-28T22:04:12.145Z,6.82
2022-07-28T22:06:38.944Z,8.52
2022-07-28T22:09:05.561Z,8.98
2022-07-28T22:11:32.199Z,6.97
2022-07-28T22:13:58.854Z,9.95
2022-07-28T22:16:25.511Z,12.35
2022-07-28T22:18:52.254Z,9.30
2022-07-28T22:21:18.843Z,8.48
2022-07-28T22:23:45.485Z,8.13
2022-07-28T22:26:12.189Z,8.20
2022-07-28T22:28:38.897Z,7.82
2022-07-28T22:31:09.655Z,7.65
2022-07-28T22:33:40.044Z,8.68
2022-07-28T22:36:08.695Z,9.88
2022-07-28T22:38:36.013Z,7.85
2022-07-28T22:41:02.907Z,10.23
2022-07-28T22:43:32.163Z,9.13
2022-07-28T22:45:58.958Z,9.70
2022-07-28T22:48:25.656Z,10.48
2022-07-28T22:50:52.429Z,11.43
2022-07-28T22:53:19.054Z,8.02
2022-07-28T22:58:30.074Z,10.13
2022-07-28T23:00:56.937Z,7.78
2022-07-28T23:03:25.690Z,8.45
2022-07-28T23:06:00.589Z,7.93
2022-07-28T23:08:27.642Z,11.55
2022-07-28T23:10:54.576Z,8.75
2022-07-28T23:13:21.187Z,5.72
2022-07-28T23:15:47.829Z,7.75
2022-07-28T23:18:14.593Z,6.57
2022-07-28T23:20:41.784Z,9.80
2022-07-28T23:23:08.846Z,7.90
2022-07-28T23:25:42.693Z,8.73
2022-07-28T23:28:10.273Z,10.63
2022-07-28T23:30:37.477Z,15.07
2022-07-28T23:33:05.537Z,16.58
2022-07-28T23:35:32.579Z,20.25
2022-07-28T23:37:59.176Z,23.67
2022-07-28T23:40:25.915Z,27.38
2022-07-28T23:42:52.575Z,33.25
2022-07-28T23:45:19.306Z,45.83
2022-07-28T23:47:45.934Z,57.50
2022-07-28T23:50:12.575Z,66.53
2022-07-28T23:52:39.155Z,81.38
2022-07-28T23:55:06.621Z,96.05
2022-07-28T23:57:33.321Z,112.00
